Time;durP1;ratioP1;P1;durP2;ratioP2;P2;SDS_P1;SDS_P2;PMS_P1;PMS_P2;Temp;Humidity;BMP_temperature;BMP_pressure;BME280_temperature;BME280_humidity;BME280_pressure;Samples;Min_cycle;Max_cycle;Signal;HPM_P1;HPM_P2
2023/05/07 00:01:46;;;;;;;;;;;;;;;14.04;64.83;97984.88;5070367;28;19932;-67
2023/05/07 00:04:37;;;;;;;;;;;;;;;13.96;65.25;97985.75;5082624;28;19924;-65
2023/05/07 00:07:25;;;;;;;;;;;;;;;13.99;64.89;97996.00;5083499;28;19920;-64
2023/05/07 00:10:16;;;;;;;;;;;;;;;13.99;64.88;97990.53;5078163;28;20006;-65
2023/05/07 00:13:04;;;;;;;;;;;;;;;14.02;64.63;97996.16;5068399;28;20336;-64
2023/05/07 00:15:53;;;;;;;;;;;;;;;14.08;64.30;97991.28;5071889;28;19927;-64
2023/05/07 00:18:42;;;;;;;;;;;;;;;14.08;63.96;97983.91;5070332;28;19931;-64
2023/05/07 00:21:30;;;;;;;;;;;;;;;14.18;64.16;97988.19;5083332;28;20733;-66
2023/05/07 00:24:18;;;;;;;;;;;;;;;14.11;64.02;97983.25;5079618;28;20008;-64
2023/05/07 00:27:07;;;;;;;;;;;;;;;14.07;64.15;97986.97;5077659;28;19927;-62
2023/05/07 00:29:55;;;;;;;;;;;;;;;14.02;64.51;97995.34;5079991;28;19974;-64
2023/05/07 00:32:45;;;;;;;;;;;;;;;14.02;64.19;97998.09;5063179;28;19924;-63
2023/05/07 00:35:34;;;;;;;;;;;;;;;14.08;64.14;97992.09;5082967;28;19924;-64
2023/05/07 00:38:22;;;;;;;;;;;;;;;14.03;64.18;97995.03;5082004;28;20006;-64
2023/05/07 00:41:10;;;;;;;;;;;;;;;14.00;64.03;97990.22;5081351;28;19928;-63
2023/05/07 00:43:58;;;;;;;;;;;;;;;14.01;64.03;97991.84;5081905;28;20529;-65
2023/05/07 00:46:49;;;;;;;;;;;;;;;14.11;63.65;97994.16;5066782;28;19990;-63
2023/05/07 00:49:40;;;;;;;;;;;;;;;14.16;63.30;97990.41;5069165;28;19941;-64
2023/05/07 00:52:30;;;;;;;;;;;;;;;14.11;63.31;97990.63;5084398;28;19965;-65
2023/05/07 00:55:18;;;;;;;;;;;;;;;14.09;63.68;97990.97;5084347;28;19932;-63
2023/05/07 00:58:06;;;;;;;;;;;;;;;14.14;63.28;97982.56;5083685;28;19920;-62
2023/05/07 01:00:55;;;;;;;;;;;;;;;14.24;63.07;97983.31;5070419;28;20011;-65
2023/05/07 01:03:44;;;;;;;;;;;;;;;14.09;63.40;97982.75;5068928;28;19924;-64
2023/05/07 01:06:33;;;;;;;;;;;;;;;14.13;63.15;97978.22;5069418;28;20681;-65
2023/05/07 01:09:21;;;;;;;;;;;;;;;14.23;62.22;97973.50;5076526;28;20650;-65
2023/05/07 01:12:10;;;;;;;;;;;;;;;14.20;62.65;97969.50;5093485;28;20364;-66
2023/05/07 01:15:00;;;;;;;;;;;;;;;14.18;62.74;97968.25;5096266;28;19927;-62
2023/05/07 01:17:49;;;;;;;;;;;;;;;14.23;62.62;97965.31;5064206;28;20062;-63
2023/05/07 01:20:47;;;;;;;;;;;;;;;14.31;61.79;97967.16;5081362;28;19927;-66
2023/05/07 01:23:36;;;;;;;;;;;;;;;14.29;62.39;97969.44;5056603;28;20313;-64
2023/05/07 01:26:25;;;;;;;;;;;;;;;14.14;62.46;97966.16;5082642;28;20051;-64
2023/05/07 01:29:13;;;;;;;;;;;;;;;14.03;62.72;97970.44;5066583;28;19920;-64
2023/05/07 01:32:02;;;;;;;;;;;;;;;14.19;62.53;97969.84;5068620;28;19954;-64
2023/05/07 01:34:50;;;;;;;;;;;;;;;14.20;62.68;97974.97;5082411;28;20022;-63
2023/05/07 01:37:38;;;;;;;;;;;;;;;14.08;62.84;97972.97;5068172;28;19924;-65
2023/05/07 01:40:28;;;;;;;;;;;;;;;14.02;62.66;97973.50;5068977;28;19924;-65
2023/05/07 01:43:16;;;;;;;;;;;;;;;14.14;62.80;97968.09;5067920;28;20321;-64
2023/05/07 01:46:05;;;;;;;;;;;;;;;14.20;62.25;97963.25;5082882;28;19934;-63
2023/05/07 01:48:53;;;;;;;;;;;;;;;14.03;62.76;97956.78;5067114;28;19931;-64
2023/05/07 01:51:41;;;;;;;;;;;;;;;14.00;63.18;97965.63;5081843;28;19963;-64
2023/05/07 01:54:30;;;;;;;;;;;;;;;13.93;63.46;97956.38;5082131;28;19920;-62
2023/05/07 01:57:22;;;;;;;;;;;;;;;13.84;63.55;97962.69;5059787;28;20173;-63
2023/05/07 02:00:11;;;;;;;;;;;;;;;13.83;63.88;97965.75;5066886;28;19982;-64
2023/05/07 02:03:02;;;;;;;;;;;;;;;13.84;63.54;97959.16;5083919;28;20390;-63
2023/05/07 02:06:02;;;;;;;;;;;;;;;13.85;63.63;97964.28;5061274;28;19949;-65
2023/05/07 02:08:54;;;;;;;;;;;;;;;13.84;63.75;97962.69;5067344;28;19970;-62
2023/05/07 02:11:45;;;;;;;;;;;;;;;13.80;63.69;97958.22;5067624;28;20010;-65
2023/05/07 02:14:35;;;;;;;;;;;;;;;13.75;63.82;97964.69;5096424;28;20633;-65
2023/05/07 02:17:23;;;;;;;;;;;;;;;13.74;63.88;97968.53;5067702;28;19931;-64
2023/05/07 02:20:13;;;;;;;;;;;;;;;13.68;64.16;97969.84;5068887;28;19967;-63
2023/05/07 02:23:02;;;;;;;;;;;;;;;13.75;64.11;97970.13;5078635;28;19920;-65
2023/05/07 02:25:50;;;;;;;;;;;;;;;13.77;63.80;97967.06;5097124;28;19931;-64
2023/05/07 02:28:39;;;;;;;;;;;;;;;13.70;64.02;97959.41;5069260;28;20011;-65
2023/05/07 02:31:33;;;;;;;;;;;;;;;13.68;64.11;97963.59;5069946;28;20443;-65
2023/05/07 02:34:21;;;;;;;;;;;;;;;13.60;64.20;97973.44;5069475;28;20415;-63
2023/05/07 02:37:10;;;;;;;;;;;;;;;13.57;64.75;97963.97;5070064;28;20037;-64
2023/05/07 02:39:58;;;;;;;;;;;;;;;13.60;64.61;97968.78;5084642;28;20365;-65
2023/05/07 02:42:47;;;;;;;;;;;;;;;13.49;64.77;97953.91;5074599;28;19926;-64
2023/05/07 02:45:36;;;;;;;;;;;;;;;13.58;64.54;97964.75;5095376;28;20476;-64
2023/05/07 02:48:27;;;;;;;;;;;;;;;13.48;64.62;97963.22;5064804;28;20324;-62
2023/05/07 02:51:18;;;;;;;;;;;;;;;13.40;64.99;97966.78;5075092;28;19927;-65
2023/05/07 02:54:06;;;;;;;;;;;;;;;13.45;64.72;97961.13;5068771;28;19920;-61
2023/05/07 02:56:55;;;;;;;;;;;;;;;13.33;65.21;97959.13;5093536;28;20276;-64
2023/05/07 02:59:43;;;;;;;;;;;;;;;13.58;64.69;97964.75;5083167;28;19924;-64
2023/05/07 03:02:33;;;;;;;;;;;;;;;13.40;65.18;97958.59;5082306;28;19987;-65
2023/05/07 03:05:23;;;;;;;;;;;;;;;13.38;64.85;97949.94;5054213;28;19928;-61
2023/05/07 03:08:11;;;;;;;;;;;;;;;13.24;65.36;97952.09;5055511;28;19920;-65
2023/05/07 03:10:59;;;;;;;;;;;;;;;13.15;65.95;97954.81;5062482;28;19920;-65
2023/05/07 03:13:49;;;;;;;;;;;;;;;13.07;66.35;97950.19;5057215;28;20029;-64
2023/05/07 03:16:39;;;;;;;;;;;;;;;12.98;66.67;97952.16;5062291;28;19940;-64
2023/05/07 03:19:27;;;;;;;;;;;;;;;12.97;66.76;97961.47;5080072;28;20007;-65
2023/05/07 03:22:17;;;;;;;;;;;;;;;12.93;67.04;97957.78;5080367;28;20284;-64
2023/05/07 03:25:06;;;;;;;;;;;;;;;12.93;67.23;97960.50;5084570;28;19924;-64
2023/05/07 03:27:54;;;;;;;;;;;;;;;12.88;67.16;97957.94;5082500;28;20014;-64
2023/05/07 03:30:45;;;;;;;;;;;;;;;12.84;67.42;97953.16;5069720;28;19942;-63
2023/05/07 03:33:33;;;;;;;;;;;;;;;12.82;67.67;97954.59;5068353;28;19924;-66
2023/05/07 03:36:22;;;;;;;;;;;;;;;12.96;67.26;97952.47;5097632;28;19935;-64
2023/05/07 03:39:12;;;;;;;;;;;;;;;12.80;67.56;97956.84;5087745;28;20631;-65
2023/05/07 03:42:02;;;;;;;;;;;;;;;12.77;67.85;97950.13;5076243;28;19925;-63
2023/05/07 03:44:52;;;;;;;;;;;;;;;12.74;67.88;97955.44;5093820;28;20026;-63
2023/05/07 03:47:42;;;;;;;;;;;;;;;12.78;67.70;97953.63;5068484;28;20094;-62
2023/05/07 03:50:32;;;;;;;;;;;;;;;12.75;67.93;97959.75;5071878;28;20451;-63
2023/05/07 03:53:20;;;;;;;;;;;;;;;12.69;68.37;97961.84;5097554;28;19927;-64
2023/05/07 03:56:12;;;;;;;;;;;;;;;12.69;68.42;97963.78;5109368;27;19920;-65
2023/05/07 03:59:02;;;;;;;;;;;;;;;12.66;68.82;97970.66;5072891;28;19924;-64
2023/05/07 04:01:51;;;;;;;;;;;;;;;12.66;68.98;97975.31;5067868;28;19927;-64
2023/05/07 04:04:42;;;;;;;;;;;;;;;12.71;68.69;97972.44;5072165;28;19936;-63
2023/05/07 04:07:31;;;;;;;;;;;;;;;12.70;68.47;97974.34;5078447;28;20372;-64
2023/05/07 04:10:19;;;;;;;;;;;;;;;12.72;68.66;97977.53;5070572;28;19931;-62
2023/05/07 04:13:11;;;;;;;;;;;;;;;12.69;68.70;97988.31;5078921;28;19920;-66
2023/05/07 04:16:00;;;;;;;;;;;;;;;12.65;68.84;97992.81;5066152;28;19963;-66
2023/05/07 04:18:48;;;;;;;;;;;;;;;12.71;68.69;97994.22;5076044;28;19981;-64
2023/05/07 04:21:37;;;;;;;;;;;;;;;12.73;68.56;98002.88;5095524;28;20015;-62
2023/05/07 04:24:25;;;;;;;;;;;;;;;12.74;68.81;98005.31;5096122;28;19932;-62
2023/05/07 04:27:13;;;;;;;;;;;;;;;12.73;68.66;98009.16;5098177;28;20557;-64
2023/05/07 04:30:03;;;;;;;;;;;;;;;12.75;68.60;98014.28;5065708;28;19947;-65
2023/05/07 04:32:56;;;;;;;;;;;;;;;12.92;68.27;98008.78;5082407;28;19939;-64
2023/05/07 04:35:47;;;;;;;;;;;;;;;12.88;68.03;98013.28;5060581;28;19920;-64
2023/05/07 04:38:35;;;;;;;;;;;;;;;12.97;67.93;98016.81;5090804;27;19924;-63
2023/05/07 04:41:25;;;;;;;;;;;;;;;13.00;67.79;98012.63;5067851;28;19920;-64
2023/05/07 04:44:14;;;;;;;;;;;;;;;12.98;67.86;98010.22;5070054;28;20285;-64
2023/05/07 04:47:05;;;;;;;;;;;;;;;13.02;67.82;98013.09;5075524;28;19950;-63
2023/05/07 04:49:53;;;;;;;;;;;;;;;13.22;67.48;98020.63;5073437;28;20590;-65
2023/05/07 04:52:44;;;;;;;;;;;;;;;13.10;67.73;98020.44;5070855;28;19920;-64
2023/05/07 04:55:32;;;;;;;;;;;;;;;13.13;67.28;98017.09;5071021;28;19924;-64
2023/05/07 04:58:20;;;;;;;;;;;;;;;13.21;67.07;98020.91;5068689;28;19924;-65
2023/05/07 05:01:08;;;;;;;;;;;;;;;13.33;66.75;98029.25;5070020;28;19920;-63
2023/05/07 05:03:59;;;;;;;;;;;;;;;13.32;66.83;98027.66;5068424;28;20018;-64
2023/05/07 05:06:48;;;;;;;;;;;;;;;13.33;66.88;98029.25;5068935;28;19924;-65
2023/05/07 05:09:37;;;;;;;;;;;;;;;13.42;66.45;98024.56;5069476;28;20586;-65
2023/05/07 05:12:26;;;;;;;;;;;;;;;13.47;65.96;98029.03;5067923;28;19931;-65
2023/05/07 05:15:14;;;;;;;;;;;;;;;13.44;66.16;98024.25;5095606;28;20022;-62
2023/05/07 05:18:03;;;;;;;;;;;;;;;13.44;66.26;98032.44;5069945;28;19997;-63
2023/05/07 05:20:53;;;;;;;;;;;;;;;13.53;66.33;98034.00;5069642;28;19920;-64
2023/05/07 05:23:42;;;;;;;;;;;;;;;13.76;65.24;98033.75;5068960;28;19977;-63
2023/05/07 05:26:30;;;;;;;;;;;;;;;13.77;65.20;98033.41;5084063;28;19993;-65
2023/05/07 05:29:19;;;;;;;;;;;;;;;13.92;64.83;98032.03;5081639;28;19920;-65
2023/05/07 05:32:07;;;;;;;;;;;;;;;14.04;64.14;98034.06;5069035;28;19920;-64
2023/05/07 05:34:55;;;;;;;;;;;;;;;14.11;64.45;98029.69;5067781;28;20380;-64
2023/05/07 05:37:45;;;;;;;;;;;;;;;14.25;63.74;98032.16;5096512;28;19969;-62
2023/05/07 05:40:33;;;;;;;;;;;;;;;14.31;63.35;98030.81;5098137;28;20022;-63
2023/05/07 05:43:22;;;;;;;;;;;;;;;14.24;63.36;98025.09;5068053;28;19920;-65
2023/05/07 05:46:11;;;;;;;;;;;;;;;14.30;63.56;98036.63;5069012;28;20002;-64
2023/05/07 05:49:01;;;;;;;;;;;;;;;14.21;63.47;98027.69;5068902;28;20015;-63
2023/05/07 05:51:49;;;;;;;;;;;;;;;14.18;63.71;98033.81;5066959;28;20009;-65
2023/05/07 05:54:38;;;;;;;;;;;;;;;14.36;63.20;98038.81;5069393;28;19924;-65
2023/05/07 05:57:27;;;;;;;;;;;;;;;14.41;62.97;98040.56;5067110;28;20351;-61
2023/05/07 06:00:18;;;;;;;;;;;;;;;14.37;63.05;98036.88;5082064;28;19924;-63
2023/05/07 06:03:06;;;;;;;;;;;;;;;14.31;62.87;98044.47;5083610;28;20308;-63
2023/05/07 06:05:56;;;;;;;;;;;;;;;14.35;63.03;98039.16;5067801;28;19920;-65
2023/05/07 06:08:46;;;;;;;;;;;;;;;14.37;63.08;98040.41;5068521;28;19926;-65
2023/05/07 06:11:41;;;;;;;;;;;;;;;14.35;63.49;98033.69;5069790;28;19920;-64
2023/05/07 06:14:33;;;;;;;;;;;;;;;14.39;63.31;98042.84;5085228;28;20388;-63
2023/05/07 06:17:21;;;;;;;;;;;;;;;14.50;63.24;98037.81;5067459;28;20668;-65
2023/05/07 06:20:11;;;;;;;;;;;;;;;14.66;62.55;98036.06;5083172;28;20376;-64
2023/05/07 06:23:00;;;;;;;;;;;;;;;14.77;62.11;98036.44;5067511;28;19920;-66
2023/05/07 06:25:50;;;;;;;;;;;;;;;14.81;62.15;98034.66;5068273;28;19920;-65
2023/05/07 06:28:44;;;;;;;;;;;;;;;14.84;62.10;98037.50;5081672;28;20456;-64
2023/05/07 06:31:34;;;;;;;;;;;;;;;14.96;61.68;98050.41;5063839;28;19932;-64
2023/05/07 06:34:26;;;;;;;;;;;;;;;15.04;61.40;98065.97;5080408;28;20328;-65
2023/05/07 06:37:14;;;;;;;;;;;;;;;15.07;61.03;98061.72;5069023;28;20407;-65
2023/05/07 06:40:12;;;;;;;;;;;;;;;15.18;60.87;98068.41;5081964;28;19925;-65
2023/05/07 06:43:02;;;;;;;;;;;;;;;15.22;61.13;98065.78;5067318;28;19927;-64
2023/05/07 06:46:03;;;;;;;;;;;;;;;15.26;60.48;98075.72;5064410;28;20309;-65
2023/05/07 06:48:52;;;;;;;;;;;;;;;15.31;60.53;98074.72;5069105;28;20281;-64
2023/05/07 06:51:43;;;;;;;;;;;;;;;15.38;60.22;98072.22;5065887;28;19940;-65
2023/05/07 06:54:32;;;;;;;;;;;;;;;15.46;60.72;98069.38;5083962;28;19927;-64
2023/05/07 06:57:20;;;;;;;;;;;;;;;15.53;60.39;98068.81;5064539;28;19920;-64
2023/05/07 07:00:09;;;;;;;;;;;;;;;15.65;60.12;98062.59;5068172;28;19920;-64
2023/05/07 07:03:08;;;;;;;;;;;;;;;15.82;59.42;98064.31;5060505;28;20316;-62
2023/05/07 07:05:56;;;;;;;;;;;;;;;16.05;59.13;98067.41;5080337;28;19920;-65
2023/05/07 07:08:45;;;;;;;;;;;;;;;16.23;58.07;98074.25;5080271;28;19932;-64
2023/05/07 07:11:36;;;;;;;;;;;;;;;16.16;58.61;98074.03;5100270;28;19928;-63
2023/05/07 07:14:27;;;;;;;;;;;;;;;16.24;58.35;98073.91;5071763;28;19920;-65
2023/05/07 07:17:15;;;;;;;;;;;;;;;16.00;58.30;98051.19;5084033;28;19933;-64
2023/05/07 07:20:06;;;;;;;;;;;;;;;16.24;58.77;98071.16;5058541;28;19931;-64
2023/05/07 07:22:55;;;;;;;;;;;;;;;16.14;58.21;98070.81;5068663;28;19950;-65
2023/05/07 07:25:43;;;;;;;;;;;;;;;16.15;58.36;98073.22;5047538;28;19968;-65
2023/05/07 07:28:32;;;;;;;;;;;;;;;16.40;58.02;98070.44;5080282;28;19927;-66
2023/05/07 07:31:22;;;;;;;;;;;;;;;16.65;57.97;98068.44;5059407;28;19921;-65
2023/05/07 07:34:11;;;;;;;;;;;;;;;17.09;56.94;98071.28;5049932;28;20001;-65
2023/05/07 07:37:05;;;;;;;;;;;;;;;17.19;55.46;98066.09;5052992;28;19927;-65
2023/05/07 07:39:55;;;;;;;;;;;;;;;17.35;55.75;98066.13;5063071;28;19928;-64
2023/05/07 07:42:44;;;;;;;;;;;;;;;17.24;55.45;98067.78;5079088;28;20431;-64
2023/05/07 07:45:33;;;;;;;;;;;;;;;17.14;55.61;98080.06;5051689;28;20499;-65
2023/05/07 07:48:21;;;;;;;;;;;;;;;17.17;56.41;98073.09;5045356;28;20035;-63
2023/05/07 07:51:10;;;;;;;;;;;;;;;17.22;56.36;98070.09;5049724;28;19920;-64
2023/05/07 07:54:00;;;;;;;;;;;;;;;17.24;56.36;98074.06;5052256;28;20443;-63
2023/05/07 07:56:49;;;;;;;;;;;;;;;17.32;56.07;98075.09;5063923;28;19920;-62
2023/05/07 07:59:39;;;;;;;;;;;;;;;17.28;56.11;98054.97;5064923;28;19967;-64
2023/05/07 08:02:31;;;;;;;;;;;;;;;17.34;56.08;98061.00;5052061;28;20277;-63
2023/05/07 08:05:20;;;;;;;;;;;;;;;17.31;56.04;98067.16;5050077;28;20409;-62
2023/05/07 08:08:09;;;;;;;;;;;;;;;17.33;56.18;98070.38;5051265;28;20365;-65
2023/05/07 08:11:00;;;;;;;;;;;;;;;17.39;56.16;98066.22;5052121;28;19928;-65
2023/05/07 08:13:52;;;;;;;;;;;;;;;17.54;55.83;98077.25;5050259;28;19927;-64
2023/05/07 08:16:40;;;;;;;;;;;;;;;17.55;56.06;98078.03;5051979;28;19920;-64
2023/05/07 08:19:29;;;;;;;;;;;;;;;17.55;55.43;98072.53;5058565;28;19920;-65
2023/05/07 08:22:18;;;;;;;;;;;;;;;17.59;55.46;98084.41;5066210;28;19925;-64
2023/05/07 08:25:07;;;;;;;;;;;;;;;17.78;55.44;98073.53;5057457;28;19924;-61
2023/05/07 08:27:56;;;;;;;;;;;;;;;17.91;54.87;98081.72;5059190;28;20492;-65
2023/05/07 08:30:46;;;;;;;;;;;;;;;18.08;54.39;98084.09;5054037;28;20073;-62
2023/05/07 08:33:34;;;;;;;;;;;;;;;18.16;54.63;98085.03;5064652;28;19924;-64
2023/05/07 08:36:23;;;;;;;;;;;;;;;18.31;53.83;98092.47;5064235;28;20013;-63
2023/05/07 08:39:11;;;;;;;;;;;;;;;18.38;53.34;98092.66;5074194;28;20599;-64
2023/05/07 08:42:01;;;;;;;;;;;;;;;18.44;53.25;98093.97;5076734;28;19920;-63
2023/05/07 08:44:52;;;;;;;;;;;;;;;18.73;52.76;98089.91;5064703;28;19920;-62
2023/05/07 08:47:44;;;;;;;;;;;;;;;18.86;51.96;98084.28;5053247;28;19946;-64
2023/05/07 08:50:33;;;;;;;;;;;;;;;18.89;51.82;98091.81;5059703;28;19930;-65
2023/05/07 08:53:21;;;;;;;;;;;;;;;18.87;52.45;98097.69;5052066;28;19965;-64
2023/05/07 08:56:10;;;;;;;;;;;;;;;18.81;52.17;98091.66;5082354;28;19969;-62
2023/05/07 08:58:59;;;;;;;;;;;;;;;18.93;51.98;98073.41;5063223;28;19924;-63
2023/05/07 09:01:51;;;;;;;;;;;;;;;18.84;52.10;98090.13;5077055;28;20062;-63
2023/05/07 09:04:39;;;;;;;;;;;;;;;18.94;52.12;98080.50;5054216;28;20487;-64
2023/05/07 09:07:28;;;;;;;;;;;;;;;19.01;52.20;98084.19;5070230;28;19920;-65
2023/05/07 09:10:21;;;;;;;;;;;;;;;19.02;52.42;98082.28;5075473;28;19981;-63
2023/05/07 09:13:12;;;;;;;;;;;;;;;19.00;52.05;98079.06;5068806;28;19924;-63
2023/05/07 09:16:08;;;;;;;;;;;;;;;19.07;52.64;98090.25;5038827;28;19930;-62
2023/05/07 09:18:58;;;;;;;;;;;;;;;19.07;52.38;98080.03;5050404;28;19928;-63
2023/05/07 09:21:46;;;;;;;;;;;;;;;19.26;52.33;98081.94;5079887;28;20399;-64
2023/05/07 09:24:37;;;;;;;;;;;;;;;19.56;52.16;98078.56;5055134;28;19927;-65
2023/05/07 09:27:31;;;;;;;;;;;;;;;19.95;50.98;98067.44;5048909;28;20297;-62
2023/05/07 09:30:20;;;;;;;;;;;;;;;20.14;49.65;98065.41;5078592;28;19924;-65
2023/05/07 09:33:10;;;;;;;;;;;;;;;20.07;49.54;98061.72;5073029;28;19920;-65
2023/05/07 09:36:07;;;;;;;;;;;;;;;20.01;49.82;98065.97;5061061;28;19924;-61
2023/05/07 09:38:57;;;;;;;;;;;;;;;20.27;49.43;98057.69;5051254;28;20607;-65
2023/05/07 09:41:45;;;;;;;;;;;;;;;20.33;49.01;98058.16;5050118;28;19927;-63
2023/05/07 09:44:40;;;;;;;;;;;;;;;20.55;48.94;98056.53;5049277;28;19927;-65
2023/05/07 09:47:33;;;;;;;;;;;;;;;20.44;48.68;98050.84;5062749;28;19925;-62
2023/05/07 09:50:27;;;;;;;;;;;;;;;20.47;48.45;98063.13;5052602;28;19928;-64
2023/05/07 09:53:17;;;;;;;;;;;;;;;20.58;48.33;98058.56;5054542;28;19947;-64
2023/05/07 09:56:06;;;;;;;;;;;;;;;20.80;47.99;98062.38;5070894;28;19931;-62
2023/05/07 09:58:56;;;;;;;;;;;;;;;21.17;46.90;98054.16;5064247;28;20206;-62
2023/05/07 10:01:44;;;;;;;;;;;;;;;21.23;46.58;98060.94;5052612;28;19924;-64
2023/05/07 10:04:33;;;;;;;;;;;;;;;21.39;46.52;98055.19;5079423;28;19924;-63
2023/05/07 10:07:22;;;;;;;;;;;;;;;21.39;45.96;98047.69;5074363;28;20289;-64
2023/05/07 10:10:15;;;;;;;;;;;;;;;21.38;45.75;98048.09;5052861;28;20011;-64
2023/05/07 10:13:10;;;;;;;;;;;;;;;21.45;46.27;98065.53;5053858;28;19970;-65
2023/05/07 10:16:02;;;;;;;;;;;;;;;21.10;46.71;98056.84;5048325;28;19924;-64
2023/05/07 10:18:55;;;;;;;;;;;;;;;20.83;46.45;98054.16;5065440;28;20380;-64
2023/05/07 10:21:45;;;;;;;;;;;;;;;20.94;46.95;98051.53;5049559;28;19925;-62
2023/05/07 10:24:34;;;;;;;;;;;;;;;21.19;46.41;98046.28;5043299;28;19927;-65
2023/05/07 10:27:26;;;;;;;;;;;;;;;21.12;46.17;98051.72;5055986;28;20633;-65
2023/05/07 10:30:18;;;;;;;;;;;;;;;20.73;46.67;98057.59;5065522;28;20065;-64
2023/05/07 10:33:10;;;;;;;;;;;;;;;20.40;47.52;98056.31;5047711;28;19921;-64
2023/05/07 10:36:04;;;;;;;;;;;;;;;20.36;47.90;98049.94;5049647;28;20392;-61
2023/05/07 10:38:53;;;;;;;;;;;;;;;20.56;47.82;98056.19;5049261;28;19920;-65
2023/05/07 10:41:42;;;;;;;;;;;;;;;20.92;46.75;98049.13;5063435;28;19936;-66
2023/05/07 10:44:32;;;;;;;;;;;;;;;21.43;45.49;98058.81;5052219;28;19928;-65
2023/05/07 10:47:26;;;;;;;;;;;;;;;21.33;45.17;98053.97;5065202;28;20074;-65
2023/05/07 10:50:21;;;;;;;;;;;;;;;21.25;45.25;98050.28;5054964;28;20357;-64
2023/05/07 10:53:27;;;;;;;;;;;;;;;21.13;45.50;98059.63;5064578;28;19921;-65
2023/05/07 10:56:26;;;;;;;;;;;;;;;21.61;45.77;98051.47;5059034;28;19927;-64
2023/05/07 10:59:43;;;;;;;;;;;;;;;22.01;43.90;98046.28;5051734;28;19920;-67
2023/05/07 11:03:06;;;;;;;;;;;;;;;21.96;43.26;98042.69;5071182;28;19927;-65
2023/05/07 11:06:10;;;;;;;;;;;;;;;21.73;44.35;98035.75;5085183;28;19940;-66
2023/05/07 11:09:09;;;;;;;;;;;;;;;21.76;44.24;98038.56;5061776;28;19931;-66
2023/05/07 11:12:11;;;;;;;;;;;;;;;22.05;43.88;98036.03;5085501;28;20071;-65
2023/05/07 11:15:09;;;;;;;;;;;;;;;22.19;43.31;98022.31;5054446;28;19939;-65
2023/05/07 11:18:00;;;;;;;;;;;;;;;22.22;43.16;98025.13;5044253;28;19935;-65
2023/05/07 11:20:54;;;;;;;;;;;;;;;22.27;42.70;98021.19;5063963;28;20402;-63
2023/05/07 11:24:04;;;;;;;;;;;;;;;22.30;43.02;98020.41;5084443;28;20321;-64
2023/05/07 11:26:59;;;;;;;;;;;;;;;22.53;42.12;98016.56;5085904;28;20552;-66
2023/05/07 11:29:50;;;;;;;;;;;;;;;22.58;41.44;98018.97;5085989;28;19984;-66
2023/05/07 11:32:40;;;;;;;;;;;;;;;22.55;42.76;98011.47;5070695;28;19935;-66
2023/05/07 11:35:29;;;;;;;;;;;;;;;22.78;41.62;98020.25;5087334;28;19997;-65
2023/05/07 11:38:18;;;;;;;;;;;;;;;22.95;40.33;98022.31;5072522;28;19943;-67
2023/05/07 11:41:08;;;;;;;;;;;;;;;23.19;40.60;98025.59;5088455;28;19945;-64
2023/05/07 11:43:59;;;;;;;;;;;;;;;23.34;40.02;98018.88;5076791;28;19924;-65
2023/05/07 11:46:48;;;;;;;;;;;;;;;23.40;39.09;98011.75;5085708;28;19935;-63
2023/05/07 11:49:37;;;;;;;;;;;;;;;23.53;39.34;98012.94;5088775;28;19924;-65
2023/05/07 11:52:25;;;;;;;;;;;;;;;23.67;38.40;98008.66;5080469;28;19924;-64
2023/05/07 11:55:14;;;;;;;;;;;;;;;23.79;38.82;98011.03;5082736;28;19950;-64
2023/05/07 11:58:02;;;;;;;;;;;;;;;23.74;38.43;98017.75;5085475;28;19924;-66
2023/05/07 12:00:51;;;;;;;;;;;;;;;23.88;38.08;98010.63;5085758;28;19938;-67
2023/05/07 12:03:42;;;;;;;;;;;;;;;23.85;37.49;98003.09;5085544;28;19935;-66
2023/05/07 12:06:32;;;;;;;;;;;;;;;23.89;37.29;98018.56;5080459;28;19920;-66
2023/05/07 12:09:22;;;;;;;;;;;;;;;23.42;38.59;98014.13;5084049;28;20033;-66
2023/05/07 12:12:11;;;;;;;;;;;;;;;23.26;38.34;98011.72;5085124;28;19920;-67
2023/05/07 12:14:59;;;;;;;;;;;;;;;23.11;39.72;98018.41;5085829;28;20063;-63
2023/05/07 12:17:48;;;;;;;;;;;;;;;22.86;39.07;98016.34;5067959;28;19938;-65
2023/05/07 12:20:37;;;;;;;;;;;;;;;22.44;40.63;98003.09;5060783;28;19954;-63
2023/05/07 12:23:26;;;;;;;;;;;;;;;22.21;41.74;98011.66;5073233;28;19970;-66
2023/05/07 12:26:15;;;;;;;;;;;;;;;22.13;42.55;98010.03;5052660;28;20391;-65
2023/05/07 12:29:04;;;;;;;;;;;;;;;22.11;42.29;98009.63;5050771;28;19920;-66
2023/05/07 12:31:55;;;;;;;;;;;;;;;22.08;42.85;98002.06;5072749;28;19921;-66
2023/05/07 12:34:43;;;;;;;;;;;;;;;21.90;42.15;98001.94;5065644;28;19928;-65
2023/05/07 12:37:32;;;;;;;;;;;;;;;21.88;42.33;98005.06;5067189;28;19925;-64
2023/05/07 12:40:22;;;;;;;;;;;;;;;21.83;42.77;98007.41;5053294;28;19948;-65
2023/05/07 12:43:16;;;;;;;;;;;;;;;21.78;42.55;98016.06;5068207;28;20053;-68
2023/05/07 12:46:04;;;;;;;;;;;;;;;21.71;42.12;98012.06;5064601;28;19925;-65
2023/05/07 12:48:53;;;;;;;;;;;;;;;21.62;42.15;98013.56;5059400;28;20021;-66
2023/05/07 12:51:41;;;;;;;;;;;;;;;21.67;42.03;98008.47;5062868;28;19920;-65
2023/05/07 12:54:30;;;;;;;;;;;;;;;21.68;41.72;98001.00;5084814;28;19925;-65
2023/05/07 12:57:20;;;;;;;;;;;;;;;21.67;42.18;98005.69;5065897;28;19950;-65
2023/05/07 13:00:09;;;;;;;;;;;;;;;21.78;41.45;98000.25;5047779;28;19960;-65
2023/05/07 13:02:57;;;;;;;;;;;;;;;21.86;42.46;97995.59;5067681;28;20005;-64
2023/05/07 13:05:45;;;;;;;;;;;;;;;21.84;41.70;97989.63;5076659;28;20019;-63
2023/05/07 13:08:34;;;;;;;;;;;;;;;21.74;41.61;97988.41;5080480;28;19946;-65
2023/05/07 13:11:22;;;;;;;;;;;;;;;21.71;41.83;97989.16;5065558;28;19920;-64
2023/05/07 13:14:12;;;;;;;;;;;;;;;21.78;41.78;97991.97;5077564;28;19920;-66
2023/05/07 13:17:01;;;;;;;;;;;;;;;21.85;41.87;97988.47;5067137;28;20482;-66
2023/05/07 13:19:49;;;;;;;;;;;;;;;21.80;41.92;97984.09;5066323;28;19924;-65
2023/05/07 13:22:38;;;;;;;;;;;;;;;21.92;42.74;97982.97;5039986;28;19929;-63
2023/05/07 13:25:26;;;;;;;;;;;;;;;21.88;41.34;97980.19;5072271;28;20023;-63
2023/05/07 13:28:14;;;;;;;;;;;;;;;21.97;41.97;97975.13;5069475;28;19942;-64
2023/05/07 13:31:06;;;;;;;;;;;;;;;21.93;40.86;97979.81;5067605;28;19959;-63
2023/05/07 13:33:56;;;;;;;;;;;;;;;21.96;41.07;97973.53;5061535;28;19920;-65
2023/05/07 13:36:44;;;;;;;;;;;;;;;22.09;40.01;97971.25;5080136;28;20288;-65
2023/05/07 13:39:32;;;;;;;;;;;;;;;22.32;40.65;97961.91;5064363;28;20003;-64
2023/05/07 13:42:21;;;;;;;;;;;;;;;22.49;40.20;97970.31;5075197;28;19959;-64
2023/05/07 13:45:09;;;;;;;;;;;;;;;22.64;39.67;97970.38;5064118;28;19958;-65
2023/05/07 13:47:59;;;;;;;;;;;;;;;22.70;39.71;97974.34;5066605;28;20009;-64
2023/05/07 13:50:47;;;;;;;;;;;;;;;22.64;39.50;97973.94;5057517;28;19967;-65
2023/05/07 13:53:36;;;;;;;;;;;;;;;22.59;39.88;97966.00;5061061;28;19920;-65
2023/05/07 13:56:24;;;;;;;;;;;;;;;22.62;39.63;97961.66;5078563;28;19976;-66
2023/05/07 13:59:14;;;;;;;;;;;;;;;22.85;39.15;97967.69;5071248;28;19924;-68
2023/05/07 14:02:04;;;;;;;;;;;;;;;22.89;39.93;97967.69;5090963;28;19920;-66
2023/05/07 14:04:54;;;;;;;;;;;;;;;22.96;38.69;97967.75;5048779;28;20347;-65
2023/05/07 14:07:42;;;;;;;;;;;;;;;23.00;38.29;97963.75;5066556;28;19925;-64
2023/05/07 14:10:31;;;;;;;;;;;;;;;23.08;38.59;97961.81;5065074;28;19946;-64
2023/05/07 14:13:19;;;;;;;;;;;;;;;23.12;37.78;97959.06;5074561;28;19928;-67
2023/05/07 14:16:08;;;;;;;;;;;;;;;23.25;38.05;97961.06;5076711;28;19920;-66
2023/05/07 14:18:56;;;;;;;;;;;;;;;23.34;36.99;97957.91;5058253;28;19924;-65
2023/05/07 14:21:46;;;;;;;;;;;;;;;23.42;36.46;97955.91;5087217;28;19925;-66
2023/05/07 14:24:35;;;;;;;;;;;;;;;23.50;37.51;97949.19;5066200;28;19932;-64
2023/05/07 14:27:25;;;;;;;;;;;;;;;23.42;37.03;97945.63;5054272;28;19960;-65
2023/05/07 14:30:14;;;;;;;;;;;;;;;23.37;37.09;97940.47;5073261;28;19921;-68
2023/05/07 14:33:02;;;;;;;;;;;;;;;23.33;37.58;97942.47;5076530;28;19951;-68
2023/05/07 14:35:50;;;;;;;;;;;;;;;23.37;38.10;97943.22;5067037;28;19931;-65
2023/05/07 14:38:40;;;;;;;;;;;;;;;23.37;38.61;97943.22;5055310;28;20433;-64
2023/05/07 14:41:29;;;;;;;;;;;;;;;23.15;37.79;97936.09;5075836;28;20510;-62
2023/05/07 14:44:18;;;;;;;;;;;;;;;22.93;38.27;97946.34;5064055;28;20281;-61
2023/05/07 14:47:06;;;;;;;;;;;;;;;22.65;38.85;97949.81;5047220;28;20043;-63